Aérodrome :
LOGIN :

S'inscrire | Disclaimer

   EN    FR    IT 

 










Légende :    VFR   VFR Marginal   IFR   IFR Intensif   IFR Très Intensif
Visi : 
Plafond : 
>= 8 km
>= 3000ft
5 à 8 km
1000 à 3000 ft
1500m à 5 km
500 à 1000 ft
800 à 1500m
200 à 500 ft
< 800m
< 200 ft
Symboles :   Orages  Brouillard  Fortes neiges  Fortes précipitations  Vent > 20 kt
SIGMETs :   Divers  Orages  Givrage  Turbulence  Onde Orograph.  Cendres Volcan.







- Altitude de l'aérodrome : 194 ft
- Code IATA : ANE
- Voir les cartes d'approche


LFJR - Angers Marcé

DERNIER METAR :
  • 192300Z AUTO 00000KT 0650 0450 R26/1000D FG NSC 01/01 Q1022

METARs EXPIRÉS :
  • 192230Z AUTO 00000KT 0700 0300 R26/1300D FG NSC 02/02 Q1022
  • 192200Z AUTO 00000KT 5000 BR NSC 03/03 Q1022
  • 192130Z AUTO 08003KT 2100 BR NSC 01/01 Q1022
  • 192100Z AUTO 06003KT 2700 0450 R26/P2000 BCFG NSC 02/02 Q1022
  • 192030Z AUTO 04002KT 1600 0900 R26/P2000 BCFG NSC 03/02 Q1022

TAF TAF LFJR
Valide du 19 à 15h jusqu'au 20 à 00h UTC


191400Z 1915/1924 14003KT 7000 BKN006
BECMG 1921/1924 3000 BR
Pas de NOTAMs connus pour ce terrain.



MET'MAP, la Météo Aéronautique d'un coup d'oeil ! - Copyright ORBIFLY Décembre 2007 - Disclaimer

ORBIFLY MET'MAP TEAM :

Programmation & Développement : Alexandra Zaïnal
Conception & Développement : Baudouin d'Aumeries
Co-Programmation & Développement : Marc-Olivier Méhu
Soutien technique & logistique : Manuel Goepfert

Contact : metmap@orbifly.com




SOURCES & CREDITS :

   NOAA